Time;durP1;ratioP1;P1;durP2;ratioP2;P2;SDS_P1;SDS_P2;PMS_P1;PMS_P2;Temp;Humidity;BMP_temperature;BMP_pressure;BME280_temperature;BME280_humidity;BME280_pressure;Samples;Min_cycle;Max_cycle;Signal;HPM_P1;HPM_P2
2021/05/28 00:01:36;;;;;;;7.13;3.90;;;7.30;99.90;;;;;;5031203;28;20605;-58
2021/05/28 00:04:02;;;;;;;4.10;3.70;;;7.30;99.90;;;;;;5050221;28;20269;-58
2021/05/28 00:06:28;;;;;;;6.00;3.30;;;7.30;99.90;;;;;;5049705;28;20461;-58
2021/05/28 00:08:54;;;;;;;3.50;3.10;;;7.20;99.90;;;;;;5050083;28;20432;-57
2021/05/28 00:11:20;;;;;;;3.70;3.30;;;7.20;99.90;;;;;;5042701;28;20434;-58
2021/05/28 00:13:46;;;;;;;4.40;3.00;;;7.20;99.90;;;;;;5040217;28;20325;-56
2021/05/28 00:16:11;;;;;;;4.20;3.07;;;7.20;99.90;;;;;;5017469;28;20221;-58
2021/05/28 00:18:37;;;;;;;4.13;3.70;;;7.10;99.90;;;;;;5038496;28;20244;-58
2021/05/28 00:21:03;;;;;;;6.40;2.77;;;7.10;99.90;;;;;;5044733;28;20173;-58
2021/05/28 00:23:29;;;;;;;5.30;3.30;;;7.10;99.90;;;;;;5048805;28;20230;-58
2021/05/28 00:25:54;;;;;;;9.30;3.50;;;7.00;99.90;;;;;;5049649;28;20860;-57
2021/05/28 00:28:20;;;;;;;3.80;3.50;;;7.00;99.90;;;;;;5047891;28;20458;-57
2021/05/28 00:30:46;;;;;;;3.40;2.90;;;7.00;99.90;;;;;;5047058;28;20222;-58
2021/05/28 00:33:11;;;;;;;5.40;2.90;;;7.00;99.90;;;;;;5037793;28;20656;-56
2021/05/28 00:35:37;;;;;;;4.60;2.80;;;7.00;99.90;;;;;;5051060;28;20273;-58
2021/05/28 00:38:03;;;;;;;4.23;2.43;;;7.00;99.90;;;;;;5050498;28;20608;-57
2021/05/28 00:40:28;;;;;;;3.47;3.00;;;7.00;99.90;;;;;;5044138;28;20651;-58
2021/05/28 00:42:54;;;;;;;5.50;3.10;;;7.00;99.90;;;;;;5048655;28;20167;-58
2021/05/28 00:45:19;;;;;;;5.40;3.40;;;7.00;99.90;;;;;;5048267;28;20175;-58
2021/05/28 00:47:45;;;;;;;6.53;3.20;;;6.90;99.90;;;;;;5046774;28;20264;-58
2021/05/28 00:50:11;;;;;;;3.90;3.00;;;7.00;99.90;;;;;;5047086;28;20176;-58
2021/05/28 00:52:38;;;;;;;5.50;3.00;;;6.90;99.90;;;;;;5049021;28;20171;-58
2021/05/28 00:55:04;;;;;;;3.10;2.63;;;6.90;99.90;;;;;;5037595;28;20460;-57
2021/05/28 00:57:31;;;;;;;6.70;3.10;;;6.90;99.90;;;;;;5041184;28;20438;-56
2021/05/28 00:59:58;;;;;;;5.50;3.10;;;6.80;99.90;;;;;;5045657;28;20460;-56
2021/05/28 01:02:25;;;;;;;3.17;2.83;;;6.70;99.90;;;;;;5051123;28;20845;-57
2021/05/28 01:04:51;;;;;;;3.20;2.90;;;6.70;99.90;;;;;;5046301;28;20552;-58
2021/05/28 01:07:16;;;;;;;5.57;3.30;;;6.60;99.90;;;;;;5041386;28;20556;-57
2021/05/28 01:09:42;;;;;;;3.13;2.83;;;6.60;99.90;;;;;;5046796;28;20643;-58
2021/05/28 01:12:09;;;;;;;3.33;2.70;;;6.50;99.90;;;;;;5050367;28;20210;-58
2021/05/28 01:14:35;;;;;;;3.93;2.60;;;6.50;99.90;;;;;;5040590;28;20446;-56
2021/05/28 01:17:01;;;;;;;3.47;2.90;;;6.40;99.90;;;;;;5034236;28;20600;-57
2021/05/28 01:19:26;;;;;;;4.27;3.03;;;6.40;99.90;;;;;;5036866;28;20820;-54
2021/05/28 01:21:54;;;;;;;6.60;3.87;;;6.30;99.90;;;;;;5035240;28;20176;-56
2021/05/28 01:24:20;;;;;;;6.13;4.00;;;6.40;99.90;;;;;;5049713;28;20236;-58
2021/05/28 01:26:46;;;;;;;3.80;3.43;;;6.30;99.90;;;;;;5048539;28;20477;-56
2021/05/28 01:29:12;;;;;;;4.63;3.37;;;6.30;99.90;;;;;;5050671;28;20190;-57
2021/05/28 01:31:37;;;;;;;4.23;3.07;;;6.30;99.90;;;;;;5035560;28;20438;-58
2021/05/28 01:34:04;;;;;;;4.40;3.70;;;6.30;99.90;;;;;;5042743;28;20583;-57
2021/05/28 01:36:29;;;;;;;3.50;3.00;;;6.30;99.90;;;;;;5041982;28;20651;-57
2021/05/28 01:38:55;;;;;;;6.40;3.37;;;6.20;99.90;;;;;;5041028;28;20511;-58
2021/05/28 01:41:20;;;;;;;4.13;3.23;;;6.20;99.90;;;;;;5046902;28;20179;-58
2021/05/28 01:43:46;;;;;;;11.03;3.83;;;6.20;99.90;;;;;;5038754;28;20214;-58
2021/05/28 01:46:12;;;;;;;3.97;3.27;;;6.10;99.90;;;;;;5054603;28;20269;-58
2021/05/28 01:48:40;;;;;;;5.53;3.33;;;6.10;99.90;;;;;;5050158;28;20262;-58
2021/05/28 01:51:07;;;;;;;5.10;3.57;;;6.10;99.90;;;;;;5049997;28;20233;-58
2021/05/28 01:53:33;;;;;;;3.10;2.90;;;6.10;99.90;;;;;;5047665;28;20510;-57
2021/05/28 01:55:58;;;;;;;3.93;2.93;;;6.10;99.90;;;;;;5050268;28;20438;-58
2021/05/28 01:58:26;;;;;;;4.00;2.60;;;6.00;99.90;;;;;;5035602;28;20180;-57
2021/05/28 02:00:55;;;;;;;4.90;3.30;;;6.00;99.90;;;;;;5030574;28;20191;-58
2021/05/28 02:03:21;;;;;;;6.50;3.37;;;5.90;99.90;;;;;;5045997;28;20599;-58
2021/05/28 02:05:47;;;;;;;3.63;2.90;;;5.90;99.90;;;;;;5049343;28;20452;-57
2021/05/28 02:08:14;;;;;;;4.40;3.50;;;5.90;99.90;;;;;;5043396;28;20982;-58
2021/05/28 02:10:41;;;;;;;4.60;3.13;;;5.90;99.90;;;;;;5051329;28;20549;-57
2021/05/28 02:13:07;;;;;;;6.00;3.47;;;5.90;99.90;;;;;;5050507;28;22365;-56
2021/05/28 02:15:33;;;;;;;6.13;3.63;;;5.90;99.90;;;;;;5021496;28;20569;-58
2021/05/28 02:17:59;;;;;;;4.10;3.43;;;5.80;99.90;;;;;;5027117;28;20433;-58
2021/05/28 02:20:25;;;;;;;5.13;3.67;;;5.80;99.90;;;;;;5051367;28;20764;-56
2021/05/28 02:22:51;;;;;;;4.13;3.27;;;5.90;99.90;;;;;;5043074;28;20436;-57
2021/05/28 02:25:18;;;;;;;5.47;3.57;;;5.80;99.90;;;;;;5047183;28;20914;-58
2021/05/28 02:27:44;;;;;;;5.20;3.50;;;5.80;99.90;;;;;;5049243;28;20953;-57
2021/05/28 02:30:11;;;;;;;12.63;3.50;;;5.80;99.90;;;;;;5048383;28;20441;-58
2021/05/28 02:32:37;;;;;;;5.17;3.37;;;5.80;99.90;;;;;;5043838;28;20433;-58
2021/05/28 02:35:04;;;;;;;3.53;3.23;;;5.80;99.90;;;;;;5035410;28;20465;-57
2021/05/28 02:37:31;;;;;;;3.93;3.60;;;5.70;99.90;;;;;;5044544;28;20187;-57
2021/05/28 02:39:57;;;;;;;8.50;4.13;;;5.70;99.90;;;;;;5030455;28;20446;-57
2021/05/28 02:42:23;;;;;;;4.43;3.30;;;5.70;99.90;;;;;;5040419;28;20438;-57
2021/05/28 02:44:49;;;;;;;4.80;3.60;;;5.70;99.90;;;;;;5057522;23;20230;-59
2021/05/28 02:47:14;;;;;;;4.43;3.20;;;5.70;99.90;;;;;;5031157;28;20823;-60
2021/05/28 02:49:40;;;;;;;5.87;3.33;;;5.60;99.90;;;;;;5048070;28;20981;-59
2021/05/28 02:52:06;;;;;;;3.97;3.03;;;5.60;99.90;;;;;;5040738;28;20178;-59
2021/05/28 02:54:32;;;;;;;5.77;3.13;;;5.60;99.90;;;;;;5048393;28;20225;-58
2021/05/28 02:56:58;;;;;;;4.60;3.50;;;5.50;99.90;;;;;;5048311;28;20460;-59
2021/05/28 02:59:24;;;;;;;11.33;3.50;;;5.50;99.90;;;;;;5022295;28;20438;-59
2021/05/28 03:01:50;;;;;;;4.13;3.43;;;5.50;99.90;;;;;;5046222;28;20179;-59
2021/05/28 03:04:16;;;;;;;5.53;3.17;;;5.40;99.90;;;;;;5043413;28;20206;-59
2021/05/28 03:06:42;;;;;;;3.80;3.10;;;5.40;99.90;;;;;;5031248;28;20485;-59
2021/05/28 03:09:08;;;;;;;4.10;3.10;;;5.40;99.90;;;;;;5034145;28;20178;-59
2021/05/28 03:11:34;;;;;;;3.43;3.13;;;5.40;99.90;;;;;;5025986;28;20179;-60
2021/05/28 03:14:00;;;;;;;8.87;3.73;;;5.30;99.90;;;;;;5029953;28;20191;-59
2021/05/28 03:16:25;;;;;;;7.20;5.10;;;5.30;99.90;;;;;;5047857;28;20429;-61
2021/05/28 03:18:54;;;;;;;6.03;3.60;;;5.30;99.90;;;;;;5028187;28;20774;-58
2021/05/28 03:21:36;;;;;;;3.90;3.60;;;5.30;99.90;;;;;;5026785;28;20183;-60
2021/05/28 03:24:03;;;;;;;4.00;3.10;;;5.30;99.90;;;;;;5041053;28;20445;-59
2021/05/28 03:26:30;;;;;;;5.60;3.50;;;5.30;99.90;;;;;;5041524;28;20478;-59
2021/05/28 03:28:57;;;;;;;5.00;3.87;;;5.30;99.90;;;;;;5023158;28;20430;-58
2021/05/28 03:31:24;;;;;;;2.77;2.57;;;5.20;99.90;;;;;;5036758;28;20414;-59
2021/05/28 03:33:50;;;;;;;3.30;3.00;;;5.20;99.90;;;;;;5014506;28;20450;-59
2021/05/28 03:36:17;;;;;;;3.70;3.30;;;5.20;99.90;;;;;;5047922;28;20448;-59
2021/05/28 03:38:44;;;;;;;4.90;3.40;;;5.20;99.90;;;;;;5041255;28;20468;-60
2021/05/28 03:41:10;;;;;;;4.03;3.63;;;5.10;99.90;;;;;;5030051;28;20522;-59
2021/05/28 03:43:36;;;;;;;4.20;3.43;;;5.10;99.90;;;;;;5027896;28;20444;-60
2021/05/28 03:46:03;;;;;;;4.90;3.70;;;5.10;99.90;;;;;;5031336;28;20453;-58
2021/05/28 03:48:28;;;;;;;4.83;3.00;;;5.10;99.90;;;;;;5038952;28;20257;-59
2021/05/28 03:50:54;;;;;;;2.97;2.70;;;5.00;99.90;;;;;;5044242;28;20473;-59
2021/05/28 03:53:19;;;;;;;4.33;3.00;;;5.00;99.90;;;;;;5039878;28;20237;-58
2021/05/28 03:55:46;;;;;;;4.77;3.60;;;5.00;99.90;;;;;;5048899;28;20610;-59
2021/05/28 03:58:11;;;;;;;3.70;3.33;;;5.00;99.90;;;;;;5030911;28;20172;-59
2021/05/28 04:00:37;;;;;;;3.97;3.67;;;5.00;99.90;;;;;;5030929;28;20512;-59
2021/05/28 04:03:03;;;;;;;6.00;3.93;;;5.00;99.90;;;;;;5043181;28;20232;-59
2021/05/28 04:05:28;;;;;;;6.60;4.50;;;5.00;99.90;;;;;;5043025;28;20230;-59
2021/05/28 04:07:54;;;;;;;5.70;3.70;;;4.90;99.90;;;;;;5048946;28;20183;-59
2021/05/28 04:10:20;;;;;;;5.50;4.20;;;5.00;99.90;;;;;;5038360;28;20259;-60
2021/05/28 04:12:45;;;;;;;4.60;3.77;;;5.00;99.90;;;;;;5030624;28;20273;-59
2021/05/28 04:15:12;;;;;;;8.53;4.30;;;5.10;99.90;;;;;;5043019;28;20291;-59
2021/05/28 04:17:37;;;;;;;6.17;3.90;;;5.10;99.90;;;;;;5031124;28;20234;-57
2021/05/28 04:20:04;;;;;;;5.70;4.33;;;5.10;99.90;;;;;;5030854;28;20438;-57
2021/05/28 04:22:30;;;;;;;4.23;3.83;;;5.10;99.90;;;;;;5037482;28;20179;-59
2021/05/28 04:24:56;;;;;;;4.83;3.93;;;5.10;99.90;;;;;;5028361;28;20445;-59
2021/05/28 04:27:22;;;;;;;6.77;4.50;;;5.10;99.90;;;;;;5030546;28;20581;-59
2021/05/28 04:29:47;;;;;;;5.20;4.00;;;5.20;99.90;;;;;;5030730;28;20376;-60
2021/05/28 04:32:13;;;;;;;5.23;3.80;;;5.30;99.90;;;;;;5040395;28;20289;-59
2021/05/28 04:34:39;;;;;;;6.93;4.50;;;5.40;99.90;;;;;;5034439;28;20199;-59
2021/05/28 04:37:05;;;;;;;10.27;4.80;;;5.40;99.90;;;;;;5044127;28;20249;-59
2021/05/28 04:39:31;;;;;;;7.03;4.53;;;5.50;99.90;;;;;;5031299;28;20176;-59
2021/05/28 04:41:57;;;;;;;16.03;5.67;;;5.50;99.90;;;;;;5052704;28;20429;-59
2021/05/28 04:44:23;;;;;;;14.03;4.50;;;5.60;99.90;;;;;;5044637;28;20499;-59
2021/05/28 04:46:49;;;;;;;7.10;4.60;;;5.70;99.90;;;;;;5048006;28;20591;-58
2021/05/28 04:49:15;;;;;;;7.60;5.10;;;5.70;99.90;;;;;;5039700;28;20783;-59
2021/05/28 04:51:41;;;;;;;7.23;4.70;;;5.80;99.90;;;;;;5045782;28;20433;-59
2021/05/28 04:54:07;;;;;;;11.10;4.70;;;5.90;99.90;;;;;;5038808;28;20222;-56
2021/05/28 04:56:33;;;;;;;7.40;5.23;;;5.90;99.90;;;;;;5038388;28;21339;-56
2021/05/28 04:58:58;;;;;;;6.97;5.07;;;6.00;99.90;;;;;;5034828;28;20198;-56
2021/05/28 05:01:24;;;;;;;8.37;5.97;;;6.10;99.90;;;;;;5040674;28;20346;-57
2021/05/28 05:03:50;;;;;;;8.13;5.50;;;6.10;99.90;;;;;;5043489;28;20471;-59
2021/05/28 05:06:16;;;;;;;8.57;5.93;;;6.20;99.90;;;;;;5039019;28;20957;-59
2021/05/28 05:08:42;;;;;;;14.07;5.83;;;6.30;99.90;;;;;;5039697;28;20930;-60
2021/05/28 05:11:08;;;;;;;12.43;6.27;;;6.40;99.90;;;;;;5049939;28;20240;-59
2021/05/28 05:13:34;;;;;;;13.23;6.37;;;6.40;99.90;;;;;;5045418;28;20187;-59
2021/05/28 05:15:59;;;;;;;10.30;6.27;;;6.50;99.90;;;;;;5047795;28;20429;-59
2021/05/28 05:18:25;;;;;;;14.23;6.67;;;6.60;99.90;;;;;;5043501;28;20172;-59
2021/05/28 05:20:52;;;;;;;11.50;6.30;;;6.60;99.90;;;;;;5045725;28;20692;-60
2021/05/28 05:23:18;;;;;;;8.67;5.40;;;6.70;99.90;;;;;;5028924;28;20551;-60
2021/05/28 05:25:44;;;;;;;11.60;5.60;;;6.80;99.90;;;;;;5049743;28;20494;-60
2021/05/28 05:28:10;;;;;;;8.90;5.70;;;6.90;99.90;;;;;;5040793;28;20507;-59
2021/05/28 05:30:36;;;;;;;7.97;4.80;;;6.90;99.90;;;;;;5034196;28;20848;-60
2021/05/28 05:33:02;;;;;;;7.50;4.80;;;6.90;99.90;;;;;;5040750;28;20676;-59
2021/05/28 05:35:28;;;;;;;8.23;4.50;;;7.00;99.90;;;;;;5040079;28;20511;-61
2021/05/28 05:37:54;;;;;;;6.73;4.50;;;7.10;99.90;;;;;;5043834;28;20856;-58
2021/05/28 05:40:19;;;;;;;7.07;4.53;;;7.20;99.90;;;;;;5039251;28;20210;-59
2021/05/28 05:42:45;;;;;;;5.70;4.40;;;7.30;99.90;;;;;;5025519;28;20653;-61
2021/05/28 05:45:13;;;;;;;8.40;5.10;;;7.50;99.90;;;;;;5027687;28;20234;-59
2021/05/28 05:47:39;;;;;;;8.77;5.10;;;7.60;99.90;;;;;;5038043;28;20234;-59
2021/05/28 05:50:06;;;;;;;6.70;5.07;;;7.70;99.90;;;;;;5044624;28;21097;-59
2021/05/28 05:52:32;;;;;;;9.43;5.10;;;7.70;99.90;;;;;;5040335;28;21033;-60
2021/05/28 05:54:57;;;;;;;11.60;5.77;;;7.80;99.90;;;;;;5043417;28;20545;-58
2021/05/28 05:57:23;;;;;;;11.40;5.90;;;7.90;99.90;;;;;;5038552;28;20211;-59
2021/05/28 05:59:48;;;;;;;13.27;6.47;;;8.00;99.90;;;;;;5032048;28;20222;-59
2021/05/28 06:02:14;;;;;;;7.73;5.37;;;8.10;99.90;;;;;;5046623;28;20222;-60
2021/05/28 06:04:42;;;;;;;8.17;5.47;;;8.20;99.90;;;;;;5052975;28;20256;-59
2021/05/28 06:07:07;;;;;;;19.93;6.93;;;8.30;99.90;;;;;;5029326;28;20242;-60
2021/05/28 06:09:33;;;;;;;11.30;5.90;;;8.30;99.90;;;;;;5049145;28;20461;-60
2021/05/28 06:11:59;;;;;;;11.77;6.40;;;8.40;99.90;;;;;;5050191;28;21204;-60
2021/05/28 06:14:26;;;;;;;7.33;5.60;;;8.50;99.90;;;;;;5047368;28;20190;-60
2021/05/28 06:16:51;;;;;;;16.73;5.40;;;8.70;99.90;;;;;;5015434;28;20579;-59
2021/05/28 06:19:17;;;;;;;9.63;5.30;;;8.80;99.90;;;;;;5041288;28;20469;-58
2021/05/28 06:21:43;;;;;;;6.60;4.67;;;8.90;99.60;;;;;;5036884;28;20183;-60
2021/05/28 06:24:09;;;;;;;12.90;5.50;;;9.00;99.90;;;;;;5043166;28;20301;-62
2021/05/28 06:26:35;;;;;;;11.37;5.90;;;9.10;99.90;;;;;;5045889;28;20199;-61
2021/05/28 06:29:02;;;;;;;8.23;5.20;;;9.20;99.90;;;;;;5037057;28;20437;-60
2021/05/28 06:31:29;;;;;;;11.07;6.10;;;9.40;99.90;;;;;;5040023;28;20193;-60
2021/05/28 06:33:55;;;;;;;13.93;6.20;;;9.60;99.30;;;;;;5047071;28;20445;-60
2021/05/28 06:36:21;;;;;;;8.30;5.57;;;9.70;98.50;;;;;;5046380;28;20503;-60
2021/05/28 06:38:47;;;;;;;21.60;5.40;;;9.80;98.00;;;;;;5041557;28;20446;-60
2021/05/28 06:41:12;;;;;;;8.00;5.53;;;9.90;97.80;;;;;;5034627;28;20725;-60
2021/05/28 06:43:38;;;;;;;8.70;5.37;;;10.00;96.90;;;;;;5036921;28;20274;-60
2021/05/28 06:46:04;;;;;;;13.30;5.50;;;10.20;96.60;;;;;;5036578;28;20203;-60
2021/05/28 06:48:29;;;;;;;22.13;6.57;;;10.30;96.60;;;;;;5039461;28;20576;-59
2021/05/28 06:50:55;;;;;;;13.87;6.50;;;10.40;96.40;;;;;;5026933;28;20187;-60
2021/05/28 06:53:21;;;;;;;10.53;5.90;;;10.50;95.60;;;;;;5042344;28;20233;-60
2021/05/28 06:55:46;;;;;;;9.67;6.60;;;10.60;95.60;;;;;;5043734;28;20253;-60
2021/05/28 06:58:12;;;;;;;11.17;5.80;;;10.80;95.30;;;;;;5041415;28;20183;-60
2021/05/28 07:00:38;;;;;;;16.90;5.50;;;10.90;94.60;;;;;;5039666;28;20310;-60
2021/05/28 07:03:04;;;;;;;11.03;6.10;;;11.00;94.60;;;;;;5041926;28;20175;-60
2021/05/28 07:05:30;;;;;;;18.00;6.33;;;11.10;94.40;;;;;;5037059;28;20199;-60
2021/05/28 07:07:56;;;;;;;9.00;5.50;;;11.30;94.60;;;;;;5038847;28;21143;-61
2021/05/28 07:10:22;;;;;;;15.67;5.43;;;11.40;93.90;;;;;;5037747;28;20187;-60
2021/05/28 07:12:49;;;;;;;7.57;5.33;;;11.60;93.40;;;;;;5037042;28;20458;-60
2021/05/28 07:15:15;;;;;;;8.50;5.20;;;11.70;93.70;;;;;;5037109;28;20580;-58
2021/05/28 07:17:41;;;;;;;8.17;4.10;;;11.90;93.40;;;;;;5035646;28;20484;-60
2021/05/28 07:20:10;;;;;;;6.40;4.53;;;12.00;93.90;;;;;;5039355;28;20433;-58
2021/05/28 07:22:36;;;;;;;8.03;4.37;;;12.20;92.60;;;;;;5023657;28;20480;-61
2021/05/28 07:25:03;;;;;;;11.27;4.60;;;12.30;92.10;;;;;;5029673;28;20457;-61
2021/05/28 07:27:28;;;;;;;5.07;3.83;;;12.40;90.70;;;;;;5010737;28;20280;-62
2021/05/28 07:29:54;;;;;;;7.43;4.00;;;12.50;91.20;;;;;;5033275;28;20516;-61
2021/05/28 07:32:20;;;;;;;7.40;4.20;;;12.60;87.60;;;;;;5028774;28;20180;-60
2021/05/28 07:34:46;;;;;;;7.00;3.90;;;12.60;81.80;;;;;;5032354;28;20472;-63
2021/05/28 07:37:12;;;;;;;4.37;3.97;;;12.70;85.60;;;;;;5033460;28;21104;-61
2021/05/28 07:39:38;;;;;;;6.57;4.13;;;12.80;85.20;;;;;;5053057;28;20533;-62
2021/05/28 07:42:04;;;;;;;4.90;3.53;;;12.90;81.50;;;;;;5028581;28;21480;-59
2021/05/28 07:44:30;;;;;;;4.13;3.73;;;13.00;81.20;;;;;;5040668;28;20770;-61
2021/05/28 07:46:56;;;;;;;4.03;3.63;;;13.10;80.70;;;;;;5007517;28;20465;-60
2021/05/28 07:49:22;;;;;;;5.90;3.80;;;13.20;75.70;;;;;;5030933;28;20175;-61
2021/05/28 07:51:48;;;;;;;4.13;3.50;;;13.30;72.40;;;;;;5028045;28;20433;-62
2021/05/28 07:54:14;;;;;;;4.03;3.63;;;13.40;70.00;;;;;;5034421;28;20472;-61
2021/05/28 07:56:42;;;;;;;9.83;3.60;;;13.50;72.20;;;;;;5036707;28;20252;-61
2021/05/28 07:59:10;;;;;;;3.73;3.47;;;13.60;72.70;;;;;;5021331;28;20183;-58
2021/05/28 08:01:36;;;;;;;4.10;3.30;;;13.80;73.60;;;;;;5012465;28;20442;-61
2021/05/28 08:04:02;;;;;;;4.40;3.83;;;13.90;72.80;;;;;;5029472;28;20464;-60
2021/05/28 08:06:28;;;;;;;5.23;3.53;;;14.00;71.30;;;;;;5033632;28;20317;-59
2021/05/28 08:08:54;;;;;;;5.83;3.20;;;14.10;70.70;;;;;;5029667;28;21106;-60
2021/05/28 08:11:20;;;;;;;5.23;2.97;;;14.30;68.00;;;;;;5034418;28;20183;-61
2021/05/28 08:13:46;;;;;;;3.27;2.97;;;14.50;66.80;;;;;;5033482;28;20445;-62
2021/05/28 08:16:12;;;;;;;3.63;2.57;;;14.60;61.80;;;;;;5032058;28;20442;-60
2021/05/28 08:18:41;;;;;;;6.60;2.80;;;14.70;59.30;;;;;;5043044;28;20183;-62
2021/05/28 08:21:07;;;;;;;4.70;2.73;;;14.80;58.90;;;;;;5004834;28;20454;-60
2021/05/28 08:23:33;;;;;;;2.90;2.50;;;14.80;58.90;;;;;;5035127;28;20459;-60
2021/05/28 08:26:02;;;;;;;3.47;3.07;;;14.90;58.70;;;;;;5042909;28;20436;-60
2021/05/28 08:28:28;;;;;;;3.20;2.90;;;15.10;59.40;;;;;;5039353;28;20820;-61
2021/05/28 08:30:53;;;;;;;5.50;3.17;;;15.30;59.00;;;;;;5043298;28;20433;-61
2021/05/28 08:33:19;;;;;;;3.30;2.60;;;15.40;56.70;;;;;;5033062;28;20776;-60
2021/05/28 08:35:45;;;;;;;3.90;2.67;;;15.50;56.90;;;;;;5042129;28;20285;-61
2021/05/28 08:38:11;;;;;;;4.40;2.80;;;15.50;56.30;;;;;;5042775;28;20198;-60
2021/05/28 08:40:37;;;;;;;2.73;2.53;;;15.60;57.00;;;;;;5038138;28;20437;-60
2021/05/28 08:43:05;;;;;;;6.73;3.00;;;15.70;56.90;;;;;;5041392;28;21002;-61
2021/05/28 08:45:38;;;;;;;3.30;3.00;;;15.80;56.60;;;;;;5032324;28;20476;-60
2021/05/28 08:48:05;;;;;;;5.73;2.87;;;15.90;56.80;;;;;;5015218;28;20556;-59
2021/05/28 08:50:31;;;;;;;2.67;2.47;;;16.00;58.00;;;;;;5016412;28;20889;-60
2021/05/28 08:53:00;;;;;;;2.87;2.67;;;16.20;57.40;;;;;;5038211;28;20437;-61
2021/05/28 08:55:26;;;;;;;3.43;2.27;;;16.30;55.80;;;;;;5035205;28;20453;-59
2021/05/28 08:57:52;;;;;;;3.70;2.43;;;16.40;55.00;;;;;;5016021;28;21206;-61
2021/05/28 09:00:18;;;;;;;2.67;2.47;;;16.40;53.80;;;;;;5021180;28;20463;-60
2021/05/28 09:02:44;;;;;;;3.23;2.40;;;16.40;52.10;;;;;;5030073;28;20183;-61
2021/05/28 09:05:16;;;;;;;2.57;2.37;;;16.50;51.30;;;;;;5018396;28;20470;-60
2021/05/28 09:07:53;;;;;;;2.67;2.47;;;16.50;50.00;;;;;;5025307;28;22158;-61
2021/05/28 09:10:27;;;;;;;3.20;2.30;;;16.50;49.60;;;;;;5023677;28;20465;-61
2021/05/28 09:12:52;;;;;;;2.53;2.17;;;16.40;49.10;;;;;;5001370;28;21312;-60
2021/05/28 09:15:19;;;;;;;5.10;2.13;;;16.40;48.30;;;;;;5034385;28;20468;-60
2021/05/28 09:17:53;;;;;;;2.87;2.27;;;16.50;50.20;;;;;;5025074;28;20206;-60
2021/05/28 09:20:19;;;;;;;3.30;2.60;;;16.70;50.20;;;;;;5030159;28;20526;-61
2021/05/28 09:22:46;;;;;;;3.33;2.47;;;16.90;50.00;;;;;;5027988;28;20440;-61
2021/05/28 09:25:12;;;;;;;2.20;2.00;;;17.00;50.10;;;;;;5030494;28;20210;-60
2021/05/28 09:27:40;;;;;;;3.73;1.90;;;17.10;48.80;;;;;;5032552;28;20473;-61
2021/05/28 09:30:10;;;;;;;2.40;2.20;;;17.10;46.60;;;;;;5029016;28;20863;-61
2021/05/28 09:32:48;;;;;;;2.57;2.37;;;17.10;48.50;;;;;;5028763;28;20716;-62
2021/05/28 09:35:16;;;;;;;2.70;2.23;;;17.10;47.20;;;;;;5029960;28;20453;-62
2021/05/28 09:37:46;;;;;;;2.50;2.30;;;17.10;48.90;;;;;;5025787;28;20442;-61
2021/05/28 09:40:14;;;;;;;7.33;2.43;;;17.20;50.20;;;;;;5034891;28;20444;-65
2021/05/28 09:42:51;;;;;;;2.80;2.17;;;17.40;51.00;;;;;;5029979;28;20444;-61
2021/05/28 09:45:32;;;;;;;6.10;2.43;;;17.40;48.30;;;;;;5016674;28;21035;-62
2021/05/28 09:48:14;;;;;;;3.20;2.13;;;17.40;49.90;;;;;;5035764;28;20491;-64
2021/05/28 09:50:55;;;;;;;3.20;2.27;;;17.30;50.20;;;;;;5032758;28;21172;-61
2021/05/28 09:53:41;;;;;;;2.83;2.13;;;17.40;50.50;;;;;;5025237;28;20425;-64
2021/05/28 09:56:22;;;;;;;3.30;2.50;;;17.30;50.10;;;;;;5032536;28;20429;-62
2021/05/28 09:59:14;;;;;;;2.63;2.30;;;17.30;48.90;;;;;;5030015;28;20425;-61
2021/05/28 10:02:02;;;;;;;2.80;2.13;;;17.20;48.80;;;;;;5027125;28;20987;-62
2021/05/28 10:04:29;;;;;;;2.37;2.17;;;17.00;49.60;;;;;;5029485;28;21221;-63
2021/05/28 10:06:55;;;;;;;3.03;2.30;;;17.00;50.10;;;;;;5013574;28;20578;-62
2021/05/28 10:09:22;;;;;;;2.73;1.90;;;17.00;50.20;;;;;;5035639;28;20588;-61
2021/05/28 10:11:48;;;;;;;3.83;1.90;;;17.20;50.10;;;;;;5013725;28;20754;-61
2021/05/28 10:14:14;;;;;;;2.30;2.10;;;17.40;49.00;;;;;;5031369;28;20496;-61
2021/05/28 10:16:40;;;;;;;2.70;2.00;;;17.50;48.60;;;;;;5028887;28;21008;-61
2021/05/28 10:19:06;;;;;;;2.27;2.10;;;17.80;48.20;;;;;;5029622;28;20693;-59
2021/05/28 10:21:32;;;;;;;2.17;2.07;;;18.00;47.70;;;;;;5030206;28;20179;-60
2021/05/28 10:23:59;;;;;;;3.63;2.07;;;18.20;48.20;;;;;;5031215;28;20234;-59
2021/05/28 10:26:30;;;;;;;2.20;2.10;;;18.30;48.00;;;;;;5026358;28;20554;-61
2021/05/28 10:28:56;;;;;;;3.90;2.00;;;18.40;47.70;;;;;;5033206;28;20441;-62
2021/05/28 10:31:57;;;;;;;4.10;2.47;;;18.50;47.10;;;;;;5020243;28;21038;-61
2021/05/28 10:34:25;;;;;;;2.60;2.33;;;18.80;45.70;;;;;;5015231;28;20977;-63
2021/05/28 10:36:51;;;;;;;3.77;1.93;;;19.00;45.80;;;;;;4998982;28;20918;-61
2021/05/28 10:39:18;;;;;;;2.17;1.83;;;19.20;47.40;;;;;;5020691;28;20473;-61
2021/05/28 10:41:45;;;;;;;2.73;2.03;;;19.30;46.90;;;;;;5016767;28;20528;-61
2021/05/28 10:44:15;;;;;;;2.10;2.00;;;19.10;46.30;;;;;;5015134;28;20466;-61
2021/05/28 10:47:09;;;;;;;7.77;2.10;;;18.90;46.00;;;;;;5016411;28;20471;-60
2021/05/28 10:49:41;;;;;;;2.83;1.90;;;18.70;46.30;;;;;;5020079;28;20426;-62
2021/05/28 10:52:08;;;;;;;4.77;2.40;;;18.40;44.90;;;;;;5021071;28;20469;-62
2021/05/28 10:54:35;;;;;;;3.20;1.90;;;18.20;45.00;;;;;;5015954;28;20454;-61
2021/05/28 10:57:29;;;;;;;2.87;2.17;;;18.00;46.30;;;;;;5017591;28;20444;-62
2021/05/28 10:59:56;;;;;;;2.93;2.20;;;18.00;47.70;;;;;;5014755;28;20456;-61
2021/05/28 11:02:53;;;;;;;2.63;2.00;;;18.20;48.80;;;;;;5000493;28;20827;-60
2021/05/28 11:05:39;;;;;;;2.73;1.93;;;18.40;47.70;;;;;;5017808;28;20528;-62
2021/05/28 11:08:41;;;;;;;2.10;2.00;;;18.50;47.30;;;;;;5018911;28;20457;-60
2021/05/28 11:11:06;;;;;;;2.80;1.80;;;18.70;48.20;;;;;;5017874;28;20442;-62
2021/05/28 11:13:52;;;;;;;3.30;2.27;;;18.80;47.80;;;;;;5017004;28;20453;-62
2021/05/28 11:16:17;;;;;;;2.40;2.20;;;19.00;47.80;;;;;;5024645;28;20278;-61
2021/05/28 11:18:47;;;;;;;1.90;1.80;;;19.20;46.50;;;;;;5031337;28;20437;-62
2021/05/28 11:21:18;;;;;;;2.23;2.13;;;19.30;45.60;;;;;;5015525;28;20187;-62
2021/05/28 11:23:45;;;;;;;4.73;2.40;;;19.40;45.70;;;;;;5018234;28;20442;-61
2021/05/28 11:26:29;;;;;;;3.90;2.57;;;19.20;44.60;;;;;;5001499;28;20446;-61
2021/05/28 11:28:58;;;;;;;3.13;2.23;;;19.20;45.40;;;;;;5025588;28;20430;-61
2021/05/28 11:31:28;;;;;;;3.70;1.80;;;19.30;46.00;;;;;;5015165;28;20540;-61
2021/05/28 11:34:00;;;;;;;2.90;1.93;;;19.40;46.60;;;;;;5018444;28;20469;-63
2021/05/28 11:36:26;;;;;;;3.17;2.30;;;19.50;46.60;;;;;;4999956;28;20503;-61
2021/05/28 11:38:59;;;;;;;2.00;1.90;;;19.60;46.70;;;;;;5017328;28;20855;-62
2021/05/28 11:41:59;;;;;;;2.50;2.30;;;19.50;46.20;;;;;;4997004;28;20468;-62
2021/05/28 11:44:31;;;;;;;1.70;1.60;;;19.60;45.70;;;;;;5007950;28;21276;-62
2021/05/28 11:46:58;;;;;;;2.17;1.97;;;19.70;46.10;;;;;;5013032;28;22313;-61
2021/05/28 11:49:24;;;;;;;3.00;2.13;;;19.90;45.30;;;;;;4993848;28;21032;-63
2021/05/28 11:52:04;;;;;;;2.07;1.90;;;20.10;43.80;;;;;;5000310;28;20429;-62
2021/05/28 11:54:32;;;;;;;3.30;1.77;;;20.30;46.60;;;;;;5013848;28;20453;-63
2021/05/28 11:57:06;;;;;;;2.50;2.30;;;20.50;46.60;;;;;;5016556;28;20535;-61
2021/05/28 11:59:51;;;;;;;2.17;2.00;;;20.40;45.80;;;;;;5011239;28;20506;-61
2021/05/28 12:02:37;;;;;;;2.00;1.90;;;20.20;45.60;;;;;;5012661;28;20475;-63
2021/05/28 12:05:06;;;;;;;2.47;2.10;;;19.90;45.40;;;;;;5012969;28;20461;-66
2021/05/28 12:07:32;;;;;;;3.60;2.30;;;19.60;45.30;;;;;;5012104;28;20912;-63
2021/05/28 12:10:06;;;;;;;2.47;2.27;;;19.30;45.80;;;;;;5011410;28;21191;-63
2021/05/28 12:12:55;;;;;;;10.13;3.60;;;19.20;45.30;;;;;;4995051;28;20179;-63
2021/05/28 12:15:32;;;;;;;4.00;2.67;;;19.30;47.30;;;;;;5016649;28;20508;-62
2021/05/28 12:18:01;;;;;;;3.37;2.77;;;19.70;48.20;;;;;;5003031;28;20438;-62
2021/05/28 12:20:33;;;;;;;3.17;2.73;;;20.10;47.80;;;;;;5009729;28;20476;-66
2021/05/28 12:23:08;;;;;;;2.67;2.27;;;20.60;48.30;;;;;;5015914;28;20433;-64
2021/05/28 12:25:37;;;;;;;4.60;2.27;;;20.90;45.30;;;;;;4995118;28;20457;-63
2021/05/28 12:28:13;;;;;;;2.87;2.30;;;21.30;47.20;;;;;;5012352;28;20461;-64
2021/05/28 12:30:43;;;;;;;3.10;2.30;;;21.60;46.90;;;;;;5010156;28;20469;-64
2021/05/28 12:33:09;;;;;;;1.87;1.77;;;21.80;43.80;;;;;;5010116;28;20431;-65
2021/05/28 12:35:36;;;;;;;2.40;2.20;;;21.90;43.00;;;;;;5012604;28;20508;-64
2021/05/28 12:38:09;;;;;;;2.90;2.40;;;22.10;43.00;;;;;;4993908;28;20461;-62
2021/05/28 12:40:36;;;;;;;2.33;2.13;;;22.30;44.50;;;;;;5010454;28;21581;-65
2021/05/28 12:43:04;;;;;;;1.70;1.60;;;22.50;44.10;;;;;;5011039;28;20434;-62
2021/05/28 12:45:36;;;;;;;3.23;2.00;;;22.70;42.20;;;;;;5010326;28;21041;-61
2021/05/28 12:48:02;;;;;;;2.10;2.00;;;23.00;42.60;;;;;;5013709;28;20490;-62
2021/05/28 12:50:33;;;;;;;3.30;1.77;;;23.20;42.20;;;;;;5012266;28;20430;-62
2021/05/28 12:53:35;;;;;;;2.60;2.20;;;23.50;42.20;;;;;;5015086;28;20430;-63
2021/05/28 12:56:00;;;;;;;4.33;2.00;;;23.70;41.00;;;;;;5002647;28;20444;-61